Terminal Aerodrome Forecast
Issued by NWS Columbia, SC

Home | Current Version | Previous Version | Text Only | Print | Product List | Glossary On
Versions: 1 2 3 4 5 6 7 8 9 10 11 12 13 14 15 16 17 18 19 20 21 22 23 24 25 26 27 28 29 30 31 32 33 34 35
000
FTUS42 KCAE 261322 AAA
TAFCAE
TAF AMD
KCAE 261322Z 2613/2712 14005KT P6SM SCT012 BKN040
     FM262100 12006KT P6SM VCSH BKN040
     FM270100 VRB03KT P6SM BKN035
     FM270800 VRB03KT P6SM BKN007 OVC015=

USA.gov is the U.S. government's official web portal to all federal, state and local government web resources and services.